createdAt,value
2022-10-01T00:00:29.242Z,45.03
2022-10-01T00:03:16.860Z,52.58
2022-10-01T00:05:44.568Z,56.53
2022-10-01T00:08:14.918Z,61.03
2022-10-01T00:10:43.011Z,79.43
2022-10-01T00:13:10.995Z,72.38
2022-10-01T00:15:43.751Z,57.72
2022-10-01T00:18:11.031Z,55.13
2022-10-01T00:20:41.735Z,53.90
2022-10-01T00:23:10.001Z,59.20
2022-10-01T00:25:37.455Z,53.03
2022-10-01T00:31:36.567Z,55.00
2022-10-01T00:34:04.358Z,52.75
2022-10-01T00:36:49.789Z,57.17
2022-10-01T00:39:17.295Z,55.03
2022-10-01T00:45:16.218Z,54.53
2022-10-01T00:47:43.767Z,49.67
2022-10-01T00:50:31.365Z,51.22
2022-10-01T00:53:04.930Z,46.08
2022-10-01T00:55:35.134Z,50.25
2022-10-01T00:58:03.605Z,47.17
2022-10-01T01:00:31.340Z,64.70
2022-10-01T01:06:30.138Z,54.72
2022-10-01T01:08:57.741Z,84.15
2022-10-01T01:11:35.144Z,79.00
2022-10-01T01:14:10.992Z,61.80
2022-10-01T01:16:41.102Z,59.38
2022-10-01T01:19:27.103Z,68.32
2022-10-01T01:21:56.092Z,77.50
2022-10-01T01:24:26.684Z,76.20
2022-10-01T01:27:00.236Z,91.72
2022-10-01T01:29:35.401Z,113.72
2022-10-01T01:32:05.763Z,155.75
2022-10-01T01:34:34.464Z,78.43
2022-10-01T01:40:34.819Z,73.93
2022-10-01T01:43:04.121Z,69.85
2022-10-01T01:45:32.522Z,79.03
2022-10-01T01:48:00.265Z,93.03
2022-10-01T01:50:29.039Z,65.38
2022-10-01T01:52:56.415Z,65.43
2022-10-01T01:55:24.533Z,59.83
2022-10-01T01:57:52.104Z,72.65
2022-10-01T02:00:19.444Z,85.70
2022-10-01T02:02:48.886Z,74.78
2022-10-01T02:05:19.649Z,70.97
2022-10-01T02:07:50.000Z,78.35
2022-10-01T02:10:17.459Z,51.95
2022-10-01T02:13:03.729Z,60.25
2022-10-01T02:15:31.284Z,69.70
2022-10-01T02:18:11.872Z,71.70
2022-10-01T02:20:42.300Z,52.83
2022-10-01T02:23:13.428Z,147.63
2022-10-01T02:29:13.979Z,150.45
2022-10-01T02:35:15.140Z,150.60
2022-10-01T02:37:44.471Z,152.30
2022-10-01T02:40:13.541Z,159.48
2022-10-01T02:42:41.409Z,146.75
2022-10-01T02:45:09.318Z,172.10
2022-10-01T02:47:39.403Z,190.07
2022-10-01T02:50:07.358Z,189.70
2022-10-01T02:52:40.629Z,153.07
2022-10-01T03:02:58.132Z,132.80
2022-10-01T03:05:26.103Z,216.60
2022-10-01T03:07:53.353Z,150.88
2022-10-01T03:10:20.756Z,211.45
2022-10-01T03:12:48.296Z,198.85
2022-10-01T03:15:16.594Z,208.15
2022-10-01T03:17:43.902Z,202.90
2022-10-01T03:20:12.016Z,206.35
2022-10-01T03:22:39.338Z,154.43
2022-10-01T03:25:06.839Z,194.48
2022-10-01T03:27:34.381Z,160.02
2022-10-01T03:30:01.702Z,237.93
2022-10-01T03:32:29.062Z,114.97
2022-10-01T03:38:28.286Z,109.88
2022-10-01T03:40:55.953Z,134.70
2022-10-01T03:43:23.201Z,122.30
2022-10-01T03:45:50.579Z,110.03
2022-10-01T03:48:18.139Z,124.32
2022-10-01T03:50:52.248Z,119.28
2022-10-01T03:53:19.775Z,139.63
2022-10-01T03:55:47.241Z,137.27
2022-10-01T03:58:14.581Z,195.15
2022-10-01T04:04:04.128Z,194.20
2022-10-01T04:06:31.799Z,133.93
2022-10-01T04:08:59.148Z,157.63
2022-10-01T04:11:26.476Z,152.50
2022-10-01T04:13:53.926Z,134.38
2022-10-01T04:16:21.314Z,92.00
2022-10-01T04:18:48.658Z,115.13
2022-10-01T04:21:16.203Z,91.03
2022-10-01T04:23:43.562Z,109.57
2022-10-01T04:26:11.004Z,101.40
2022-10-01T04:28:38.610Z,179.27
2022-10-01T04:31:05.959Z,146.52
2022-10-01T04:33:33.279Z,76.40
2022-10-01T04:36:00.767Z,99.93
2022-10-01T04:38:28.095Z,118.88
2022-10-01T04:40:55.354Z,51.35
2022-10-01T04:43:23.011Z,89.30
2022-10-01T04:45:50.284Z,113.60
2022-10-01T04:48:17.755Z,81.13
2022-10-01T04:50:45.429Z,94.28
2022-10-01T04:53:12.728Z,110.05
2022-10-01T04:55:40.201Z,110.47
2022-10-01T04:58:07.535Z,62.25
2022-10-01T05:00:35.381Z,57.38
2022-10-01T05:03:02.654Z,58.10
2022-10-01T05:05:29.914Z,82.63
2022-10-01T05:07:57.414Z,67.10
2022-10-01T05:10:24.732Z,74.93
2022-10-01T05:12:52.121Z,88.70
2022-10-01T05:15:19.589Z,49.15
2022-10-01T05:17:47.317Z,80.20
2022-10-01T05:20:19.692Z,43.55
2022-10-01T05:26:18.752Z,36.80
2022-10-01T05:28:46.193Z,44.63
2022-10-01T05:31:13.546Z,77.95
2022-10-01T05:33:40.866Z,70.82
2022-10-01T05:36:08.427Z,64.47
2022-10-01T05:41:57.709Z,49.97
2022-10-01T05:44:25.549Z,38.03
2022-10-01T05:46:52.997Z,50.35
2022-10-01T05:52:52.109Z,57.10
2022-10-01T05:55:19.882Z,44.70
2022-10-01T05:57:54.249Z,44.75
2022-10-01T06:00:21.729Z,54.38
2022-10-01T06:02:52.454Z,91.95
2022-10-01T06:05:20.198Z,53.88
2022-10-01T06:07:48.175Z,67.22
2022-10-01T06:10:15.664Z,89.82
2022-10-01T06:12:43.099Z,91.60
2022-10-01T06:15:10.643Z,104.82
2022-10-01T06:17:37.958Z,74.20
2022-10-01T06:20:05.464Z,54.40
2022-10-01T06:26:15.019Z,51.17
2022-10-01T06:28:42.517Z,35.67
2022-10-01T06:31:09.783Z,29.20
2022-10-01T06:33:37.163Z,30.73
2022-10-01T06:36:04.879Z,49.20
2022-10-01T06:38:32.197Z,37.67
2022-10-01T06:41:00.492Z,58.58
2022-10-01T06:43:29.391Z,31.85
2022-10-01T06:45:57.013Z,40.95
2022-10-01T06:48:24.327Z,42.85
2022-10-01T06:50:51.869Z,39.15
2022-10-01T06:53:19.192Z,66.07
2022-10-01T06:55:46.422Z,40.70
2022-10-01T06:58:17.971Z,43.78
2022-10-01T07:00:45.426Z,40.33
2022-10-01T07:03:19.830Z,28.55
2022-10-01T07:05:47.843Z,22.58
2022-10-01T07:08:15.541Z,34.30
2022-10-01T07:10:42.785Z,37.95
2022-10-01T07:13:11.703Z,40.13
2022-10-01T07:19:02.115Z,22.35
2022-10-01T07:21:29.624Z,24.77
2022-10-01T07:23:56.901Z,20.60
2022-10-01T07:26:24.182Z,18.98
2022-10-01T07:28:54.193Z,20.55
2022-10-01T07:31:21.553Z,23.38
2022-10-01T07:33:48.924Z,17.58
2022-10-01T07:36:16.550Z,21.55
2022-10-01T07:38:43.861Z,22.10
2022-10-01T07:41:11.159Z,22.30
2022-10-01T07:43:38.648Z,18.67
2022-10-01T07:49:37.602Z,22.60
2022-10-01T07:52:07.619Z,19.38
2022-10-01T07:54:37.048Z,18.90
2022-10-01T07:57:04.299Z,17.52
2022-10-01T07:59:31.775Z,17.15
2022-10-01T08:01:59.167Z,24.60
2022-10-01T08:04:26.791Z,20.13
2022-10-01T08:06:54.257Z,21.52
2022-10-01T08:09:21.729Z,15.68
2022-10-01T08:11:48.997Z,16.88
2022-10-01T08:14:16.611Z,24.08
2022-10-01T08:16:44.018Z,15.45
2022-10-01T08:19:11.376Z,15.00
2022-10-01T08:21:39.134Z,14.05
2022-10-01T08:24:06.535Z,15.25
2022-10-01T08:26:36.455Z,13.82
2022-10-01T08:29:03.932Z,12.85
2022-10-01T08:31:31.522Z,12.13
2022-10-01T08:33:59.246Z,12.55
2022-10-01T08:36:28.801Z,18.35
2022-10-01T08:38:56.094Z,13.02
2022-10-01T08:42:02.284Z,11.98
2022-10-01T08:44:36.140Z,12.15
2022-10-01T08:47:12.170Z,10.10
2022-10-01T08:49:44.882Z,14.02
2022-10-01T08:52:32.096Z,10.52
2022-10-01T08:55:15.733Z,13.48
2022-10-01T08:57:45.064Z,11.55
2022-10-01T09:00:16.236Z,12.32
2022-10-01T09:02:44.367Z,12.63
2022-10-01T09:05:30.290Z,13.82
2022-10-01T09:08:06.644Z,14.10
2022-10-01T09:10:34.037Z,12.85
2022-10-01T09:16:32.859Z,13.60
2022-10-01T09:19:12.296Z,12.63
2022-10-01T09:25:14.057Z,9.43
2022-10-01T09:27:41.911Z,10.70
2022-10-01T09:30:14.172Z,10.52
2022-10-01T09:32:56.688Z,12.73
2022-10-01T09:35:29.609Z,9.68
2022-10-01T09:38:05.833Z,12.23
2022-10-01T09:43:56.496Z,15.32
2022-10-01T09:46:24.189Z,8.70
2022-10-01T09:49:08.865Z,11.07
2022-10-01T09:51:46.407Z,11.15
2022-10-01T09:54:13.735Z,11.73
2022-10-01T09:56:56.242Z,10.05
2022-10-01T09:59:29.762Z,11.40
2022-10-01T10:01:58.112Z,12.93
2022-10-01T10:04:25.626Z,10.43
2022-10-01T10:07:00.527Z,13.05
2022-10-01T10:09:32.480Z,16.38
2022-10-01T10:11:59.772Z,16.95
2022-10-01T10:14:44.939Z,13.65
2022-10-01T10:17:14.264Z,12.05
2022-10-01T10:19:46.494Z,11.32
2022-10-01T10:22:21.030Z,11.77
2022-10-01T10:24:48.787Z,11.85
2022-10-01T10:27:27.390Z,11.95
2022-10-01T10:30:01.815Z,12.45
2022-10-01T10:32:29.544Z,13.70
2022-10-01T10:35:02.733Z,12.27
2022-10-01T10:37:45.696Z,9.48
2022-10-01T10:40:16.955Z,8.60
2022-10-01T10:42:48.331Z,8.40
2022-10-01T10:45:17.097Z,8.33
2022-10-01T10:47:46.119Z,9.98
2022-10-01T10:50:22.227Z,7.80
2022-10-01T10:52:49.539Z,7.78
2022-10-01T10:55:27.985Z,5.35
2022-10-01T10:57:58.046Z,7.85
2022-10-01T11:00:26.503Z,5.80
2022-10-01T11:06:16.662Z,7.60
2022-10-01T11:08:45.235Z,6.63
2022-10-01T11:11:23.470Z,6.93
2022-10-01T11:13:57.942Z,7.40
2022-10-01T11:16:37.695Z,5.28
2022-10-01T11:19:40.993Z,5.50
2022-10-01T11:22:14.188Z,5.18
2022-10-01T11:24:47.647Z,5.60
2022-10-01T11:27:23.017Z,5.28
2022-10-01T11:29:53.498Z,5.13
2022-10-01T11:32:29.154Z,4.97
2022-10-01T11:38:37.421Z,4.88
2022-10-01T11:41:16.774Z,3.78
2022-10-01T11:43:46.739Z,5.07
2022-10-01T11:46:23.594Z,6.65
2022-10-01T11:48:53.351Z,4.68
2022-10-01T11:51:25.187Z,4.68
2022-10-01T11:53:56.042Z,6.75
2022-10-01T11:56:33.682Z,3.33
2022-10-01T11:59:04.095Z,4.93
2022-10-01T12:01:46.844Z,4.85
2022-10-01T12:04:40.268Z,5.75
2022-10-01T12:07:13.447Z,4.25
2022-10-01T12:09:55.512Z,1.95
2022-10-01T12:12:26.902Z,1.63
2022-10-01T12:18:32.136Z,2.85
2022-10-01T12:21:03.957Z,2.42
2022-10-01T12:23:39.684Z,2.60
2022-10-01T12:26:17.552Z,2.92
2022-10-01T12:28:59.853Z,2.55
2022-10-01T12:31:34.279Z,4.20
2022-10-01T12:34:21.820Z,3.92
2022-10-01T12:37:10.891Z,3.10
2022-10-01T12:39:38.288Z,3.10
2022-10-01T12:42:08.801Z,5.07
2022-10-01T12:44:45.386Z,3.80
2022-10-01T12:47:15.930Z,3.00
2022-10-01T12:49:50.009Z,3.33
2022-10-01T12:55:39.644Z,4.70
2022-10-01T12:58:16.261Z,3.40
2022-10-01T13:00:58.888Z,3.17
2022-10-01T13:03:32.731Z,1.77
2022-10-01T13:06:05.545Z,3.20
2022-10-01T13:08:51.829Z,2.40
2022-10-01T13:14:50.881Z,4.55
2022-10-01T13:17:34.762Z,2.42
2022-10-01T13:20:29.835Z,3.47
2022-10-01T13:23:03.561Z,2.60
2022-10-01T13:25:38.673Z,2.30
2022-10-01T13:28:13.495Z,3.38
2022-10-01T13:31:00.664Z,3.25
2022-10-01T13:33:32.038Z,3.85
2022-10-01T13:36:00.622Z,4.53
2022-10-01T13:38:31.160Z,3.20
2022-10-01T13:41:00.102Z,2.92
2022-10-01T13:43:28.502Z,2.03
2022-10-01T13:46:03.681Z,2.67
2022-10-01T13:48:32.655Z,1.85
2022-10-01T13:51:05.218Z,3.63
2022-10-01T13:53:35.686Z,1.80
2022-10-01T13:56:04.006Z,2.22
2022-10-01T13:58:33.003Z,2.03
2022-10-01T14:01:02.267Z,2.13
2022-10-01T14:03:32.526Z,3.15
2022-10-01T14:06:01.164Z,4.30
2022-10-01T14:08:31.448Z,2.95
2022-10-01T14:14:56.614Z,3.33
2022-10-01T14:17:29.103Z,3.47
2022-10-01T14:19:57.167Z,3.47
2022-10-01T14:22:33.889Z,3.35
2022-10-01T14:25:27.618Z,4.45
2022-10-01T14:28:13.464Z,3.15
2022-10-01T14:30:45.924Z,4.88
2022-10-01T14:33:19.070Z,6.20
2022-10-01T14:43:44.256Z,7.32
2022-10-01T14:49:33.637Z,41.28
2022-10-01T14:52:03.502Z,5.80
2022-10-01T14:54:32.447Z,4.68
2022-10-01T15:06:01.604Z,5.53
2022-10-01T15:08:39.706Z,3.03
2022-10-01T15:11:08.967Z,15.40
2022-10-01T15:13:38.078Z,4.25
2022-10-01T15:19:38.704Z,5.55
2022-10-01T15:22:06.697Z,3.15
2022-10-01T15:24:40.180Z,3.58
2022-10-01T15:27:08.917Z,2.80
2022-10-01T15:29:37.099Z,2.83
2022-10-01T15:32:04.557Z,7.45
2022-10-01T15:34:32.427Z,3.42
2022-10-01T15:36:59.789Z,4.13
2022-10-01T15:39:38.241Z,3.25
2022-10-01T15:42:17.620Z,4.18
2022-10-01T15:44:48.876Z,4.97
2022-10-01T15:47:19.399Z,4.45
2022-10-01T15:50:06.740Z,2.72
2022-10-01T15:52:52.945Z,3.50
2022-10-01T15:55:26.256Z,3.65
2022-10-01T15:58:12.351Z,6.50
2022-10-01T16:00:39.737Z,5.70
2022-10-01T16:03:16.186Z,7.85
2022-10-01T16:05:47.293Z,8.13
2022-10-01T16:08:18.736Z,11.40
2022-10-01T16:10:45.993Z,6.47
2022-10-01T16:13:32.057Z,9.90
2022-10-01T16:16:14.652Z,15.38
2022-10-01T16:18:42.490Z,15.77
2022-10-01T16:21:10.769Z,13.60
2022-10-01T16:23:40.809Z,17.77
2022-10-01T16:26:26.974Z,15.80
2022-10-01T16:28:55.938Z,26.73
2022-10-01T16:31:24.165Z,12.32
2022-10-01T16:33:51.793Z,11.10
2022-10-01T16:39:51.049Z,14.35
2022-10-01T16:42:24.316Z,14.52
2022-10-01T16:44:52.095Z,14.70
2022-10-01T16:47:19.595Z,12.85
2022-10-01T16:49:47.898Z,12.57
2022-10-01T16:52:15.171Z,13.00
2022-10-01T16:54:42.809Z,12.23
2022-10-01T16:57:10.679Z,10.45
2022-10-01T16:59:37.946Z,12.85
2022-10-01T17:02:05.421Z,31.05
2022-10-01T17:04:33.830Z,7.05
2022-10-01T17:07:01.732Z,9.23
2022-10-01T17:12:51.160Z,11.43
2022-10-01T17:15:20.533Z,5.65
2022-10-01T17:17:47.775Z,7.53
2022-10-01T17:20:15.350Z,8.15
2022-10-01T17:22:42.842Z,8.30
2022-10-01T17:25:20.811Z,7.18
2022-10-01T17:27:48.579Z,5.78
2022-10-01T17:30:16.449Z,5.32
2022-10-01T17:32:43.716Z,4.47
2022-10-01T17:35:12.241Z,5.93
2022-10-01T17:37:40.017Z,5.35
2022-10-01T17:40:07.764Z,6.82
2022-10-01T17:42:35.222Z,6.03
2022-10-01T17:45:04.140Z,5.75
2022-10-01T17:47:31.685Z,3.35
2022-10-01T17:49:59.275Z,2.63
2022-10-01T17:52:26.563Z,6.38
2022-10-01T17:54:53.778Z,4.88
2022-10-01T17:57:21.424Z,3.28
2022-10-01T17:59:48.671Z,4.45
2022-10-01T18:02:36.995Z,6.28
2022-10-01T18:05:03.474Z,5.18
2022-10-01T18:07:30.794Z,4.60
2022-10-01T18:09:58.106Z,5.18
2022-10-01T18:12:25.538Z,3.15
2022-10-01T18:14:52.800Z,3.80
2022-10-01T18:17:20.073Z,3.55
2022-10-01T18:19:55.031Z,5.10
2022-10-01T18:22:22.496Z,4.30
2022-10-01T18:24:49.955Z,3.72
2022-10-01T18:27:17.461Z,3.30
2022-10-01T18:33:16.194Z,4.63
2022-10-01T18:35:44.252Z,10.10
2022-10-01T18:38:20.919Z,13.18
2022-10-01T18:40:53.030Z,14.60
2022-10-01T18:43:24.187Z,11.45
2022-10-01T18:46:01.743Z,4.95
2022-10-01T18:48:41.401Z,8.25
2022-10-01T18:51:44.537Z,7.05
2022-10-01T18:54:14.381Z,7.65
2022-10-01T18:57:00.592Z,4.78
2022-10-01T18:59:47.461Z,3.65
2022-10-01T19:05:37.146Z,3.60
2022-10-01T19:08:16.967Z,3.75
2022-10-01T19:10:52.993Z,4.00
2022-10-01T19:13:23.353Z,3.67
2022-10-01T19:16:09.585Z,4.40
2022-10-01T19:19:00.651Z,4.43
2022-10-01T19:21:39.767Z,5.05
2022-10-01T19:24:19.226Z,4.75
2022-10-01T19:26:57.523Z,6.03
2022-10-01T19:29:30.968Z,6.07
2022-10-01T19:32:02.992Z,5.85
2022-10-01T19:34:35.645Z,6.75
2022-10-01T19:37:10.254Z,4.40
2022-10-01T19:39:39.070Z,5.60
2022-10-01T19:42:23.462Z,6.57
2022-10-01T19:44:57.124Z,4.28
2022-10-01T19:47:31.161Z,6.20
2022-10-01T19:50:00.939Z,7.22
2022-10-01T19:52:30.562Z,6.13
2022-10-01T19:54:58.517Z,9.02
2022-10-01T19:57:27.343Z,8.40
2022-10-01T19:59:59.412Z,6.13
2022-10-01T20:02:44.760Z,7.38
2022-10-01T20:05:41.676Z,6.00
2022-10-01T20:08:21.172Z,8.32
2022-10-01T20:10:56.949Z,6.78
2022-10-01T20:13:24.188Z,8.63
2022-10-01T20:16:08.762Z,7.78
2022-10-01T20:18:36.114Z,6.80
2022-10-01T20:21:21.880Z,6.50
2022-10-01T20:23:53.497Z,4.65
2022-10-01T20:26:24.250Z,5.75
2022-10-01T20:29:15.945Z,4.53
2022-10-01T20:31:57.137Z,5.25
2022-10-01T20:34:30.701Z,4.55
2022-10-01T20:37:14.134Z,6.55
2022-10-01T20:39:43.471Z,6.18
2022-10-01T20:42:14.898Z,6.07
2022-10-01T20:44:42.334Z,7.85
2022-10-01T20:47:19.682Z,5.85
2022-10-01T20:50:09.721Z,8.82
2022-10-01T20:52:37.234Z,5.82
2022-10-01T20:55:15.640Z,6.15
2022-10-01T20:57:51.093Z,5.50
2022-10-01T21:00:26.280Z,6.45
2022-10-01T21:03:01.310Z,6.28
2022-10-01T21:05:32.743Z,5.38
2022-10-01T21:08:10.353Z,5.22
2022-10-01T21:10:37.802Z,5.82
2022-10-01T21:13:12.280Z,5.03
2022-10-01T21:16:01.084Z,6.60
2022-10-01T21:18:47.780Z,11.88
2022-10-01T21:21:24.534Z,7.93
2022-10-01T21:23:54.677Z,4.90
2022-10-01T21:26:37.507Z,10.27
2022-10-01T21:29:20.964Z,7.13
2022-10-01T21:31:58.915Z,8.07
2022-10-01T21:34:32.383Z,7.53
2022-10-01T21:37:16.669Z,5.97
2022-10-01T21:39:46.727Z,11.15
2022-10-01T21:42:14.184Z,5.97
2022-10-01T21:44:41.507Z,6.75
2022-10-01T21:47:08.765Z,5.25
2022-10-01T21:49:49.483Z,6.00
2022-10-01T21:52:16.750Z,6.45
2022-10-01T21:54:56.125Z,4.63
2022-10-01T21:57:42.193Z,4.97
2022-10-01T22:00:17.478Z,5.30
2022-10-01T22:03:08.343Z,4.63
2022-10-01T22:05:47.825Z,4.60
2022-10-01T22:08:17.953Z,4.65
2022-10-01T22:10:52.936Z,5.28
2022-10-01T22:13:25.503Z,5.70
2022-10-01T22:15:55.080Z,5.03
2022-10-01T22:21:28.389Z,6.30
2022-10-01T22:24:02.489Z,7.18
2022-10-01T22:26:31.750Z,5.30
2022-10-01T22:28:59.750Z,8.05
2022-10-01T22:31:28.975Z,4.95
2022-10-01T22:34:01.600Z,6.15
2022-10-01T22:39:02.046Z,3.65
2022-10-01T22:41:44.752Z,5.25
2022-10-01T22:44:22.400Z,3.50
2022-10-01T22:47:10.146Z,5.25
2022-10-01T22:49:41.726Z,5.82
2022-10-01T22:52:24.414Z,5.73
2022-10-01T22:55:07.497Z,5.18
2022-10-01T22:57:42.108Z,3.85
2022-10-01T23:00:11.653Z,5.80
2022-10-01T23:02:41.062Z,3.30
2022-10-01T23:05:27.101Z,3.33
2022-10-01T23:08:16.851Z,3.42
2022-10-01T23:11:00.660Z,5.35
2022-10-01T23:13:30.942Z,4.85
2022-10-01T23:16:12.367Z,5.65
2022-10-01T23:18:39.870Z,2.97
2022-10-01T23:21:13.077Z,3.17
2022-10-01T23:23:41.658Z,1.90
2022-10-01T23:26:27.861Z,3.05
2022-10-01T23:29:13.659Z,2.47
2022-10-01T23:31:51.111Z,4.53
2022-10-01T23:34:21.483Z,2.42
2022-10-01T23:36:51.304Z,1.80
2022-10-01T23:39:31.003Z,4.80
2022-10-01T23:42:02.428Z,2.30
2022-10-01T23:44:33.917Z,1.92
2022-10-01T23:47:04.227Z,1.52
2022-10-01T23:49:35.016Z,1.80
2022-10-01T23:52:11.607Z,3.03
2022-10-01T23:54:47.486Z,1.27
2022-10-01T23:57:18.048Z,2.28
